Collingwood, Ontario

6:11 PM EST on December 17, 2014 (GMT -0500)
IONTARIO224 | Change Station
CLOSE
Current Station
Personal Weather Station
Location: Collingwood, ONTARIO
Elevation: 596 ft
Nearby Weather Stations

Elev 596 ft 44.50 °N, 80.22 °W | Updated 40 seconds ago

Snow
Snow
32.7 °F
Feels Like 33 °F
N
0.0
Wind Variable Wind from North
Gusts 10.1 mph

Tomorrow is forecast to be nearly the same temperature as today.

Today
High -- | Low -- °F
--% Chance of Precip.
Yesterday
High -- | Low -- °F
Precip. -- in
7:51 AM 4:42 PM
Waning Crescent, 19% visible
Pressure 29.92 in
Visibility 2.5 miles
Clouds
Windchill 33 °F
Dew Point 33 °F
Humidity 100%
Rainfall 0.12 in
Snow Depth Not available.
UV Not available.
Pollen Not available.
Air Quality Not available.
Flu Activity Not available.
METAR CYBN 172300Z AUTO 30007KT 260V320 2 1/2SM -UP VV009 00/00 A2989 RMK VSBY VRBL 1.8V7.0 ICG SLP130

More Conditions Fewer Conditions

Pressure 29.92 in
Visibility 2.5 miles
Clouds
Windchill 33 °F
Dew Point 33 °F
Humidity 100%
Rainfall 0.12 in
Snow Depth Not available.
UV Not available.
Pollen Not available.
Air Quality Not available.
Flu Activity Not available.
METAR CYBN 172300Z AUTO 30007KT 260V320 2 1/2SM -UP VV009 00/00 A2989 RMK VSBY VRBL 1.8V7.0 ICG SLP130

More Conditions Fewer Conditions

Nowcast |

Apsley - Woodview - Northern Peterborough County . Kaladar - Bannockburn - Bon Echo Park.

×

10-Day Weather Forecast

Almanac

Astronomy

Dec. 17, 2014 Rise Set
Actual Time
Civil Twilight
Nautical Twilight
Astronomical Twilight
Moon
Length of Visible Light
Length of Day
Tomorrow will be .
, % of the Moon is Illuminated

Today's Extremes

Country Highs Country Lows

Community

WunderPhotos

Upload Photos

1,778,822 photos uploaded!

WunderBlogs® & News

Nearby

Air Quality

  Air Quality AQ Index Pollutant
Not available.

Snow Depth

Station Depth Elevation

Earthquake Activity

City Distance Mag. Time & Date
Minimum magnitude displayed is 2.5.

Coastal Water Temperatures

Place Temperature

Nearby Weather Stations